»·PEaware :: NWA576 KDFW-KABQ

NWA576 :: KDFW-KABQ

FLIGHT INFORMATION

Flight Status: Arrived
Operator:
Northwest Airlines
More flights by this operator :: More flights under this callsign
Pilot: Anonymous 8274 (8274)
Aircraft: MCDONNELL-DOUGLAS MD-88
(MD88)
More flights by this aircraft type
Origin: KDFW Dallas-Ft Worth Intl
United States
Destination: KABQ Albuquerque Intl Sunport
United States
More flights between these airports :: More routes between these airports
Route: HRPER3 HULZE TXO RECKN COLTR3
File this flight plan on PilotEdge
Remarks:
Altitude:
(Current/Filed)
26,000ft
Speed:
(Current/Filed)
460kts
Departed: 20-May-17 06:40 PM
Arrived: 20-May-17 07:20 PM
Distance/Time
Traveled:
494nm/0:40
Distance/Time
To Go:
Arrived

Flight Plot

Page will automatically refresh every two minutes.

Flight plan parsing failed; only flown route is shown


Map Options




Map Legend


Flown Route
Filed Route
Departure Airport
Arrival Airport
Navaid (VOR, NDB)
Fix

Horizontal Profiles

Position Reports

Time Latitude Longitude Heading Altitude Ground
Speed
20-May-17 18:41 34.285881 -102.200619 285 26098ft 411kts
20-May-17 18:42 34.327474 -102.328531 286 26097ft 411kts
20-May-17 18:43 34.361904 -102.434095 286 26115ft 411kts
20-May-17 18:44 34.399954 -102.550444 286 26123ft 411kts
20-May-17 18:45 34.441830 -102.678110 285 26130ft 411kts
20-May-17 18:46 34.483554 -102.804894 285 26130ft 411kts
20-May-17 18:47 34.507238 -102.937833 272 26103ft 403kts
20-May-17 18:48 34.522851 -103.071437 273 26101ft 403kts
20-May-17 18:49 34.538760 -103.205247 273 26100ft 403kts
20-May-17 18:50 34.554841 -103.339237 273 26099ft 403kts
20-May-17 18:51 34.571082 -103.473360 273 26099ft 404kts
20-May-17 18:52 34.589989 -103.607505 279 26098ft 407kts
20-May-17 18:53 34.621234 -103.737466 280 26053ft 409kts
20-May-17 18:54 34.653027 -103.869694 280 26050ft 410kts
20-May-17 18:55 34.685073 -104.002582 280 26049ft 410kts
20-May-17 18:56 34.717169 -104.135082 281 26048ft 410kts
20-May-17 18:57 34.749364 -104.267404 281 26048ft 410kts
20-May-17 18:58 34.781747 -104.399911 281 26047ft 410kts
20-May-17 18:59 34.814188 -104.532065 281 26046ft 410kts
20-May-17 19:00 34.840157 -104.659528 270 26100ft 386kts
20-May-17 19:01 34.850287 -104.781286 270 26135ft 362kts
20-May-17 19:02 34.860896 -104.902832 270 26133ft 364kts
20-May-17 19:03 34.871692 -105.024887 270 26149ft 364kts
20-May-17 19:04 34.882623 -105.147079 270 26158ft 364kts
20-May-17 19:05 34.893687 -105.269492 271 25939ft 366kts
20-May-17 19:06 34.904804 -105.391088 271 24969ft 360kts
20-May-17 19:07 34.915730 -105.511572 270 23931ft 360kts
20-May-17 19:08 34.925211 -105.632004 271 22053ft 356kts
20-May-17 19:09 34.934489 -105.748418 272 20260ft 351kts
20-May-17 19:10 34.944101 -105.865407 275 18447ft 346kts
20-May-17 19:11 34.953623 -105.980692 275 16646ft 340kts
20-May-17 19:12 34.957153 -106.093557 270 14884ft 336kts
20-May-17 19:13 34.958161 -106.207636 269 12760ft 346kts
20-May-17 19:14 34.948872 -106.320214 263 11539ft 310kts
20-May-17 19:15 34.940727 -106.414591 266 10656ft 261kts
20-May-17 19:16 34.938032 -106.498421 279 9577ft 236kts
20-May-17 19:17 34.977469 -106.540467 10 8910ft 208kts
20-May-17 19:18 35.027038 -106.506705 22 8170ft 210kts
20-May-17 19:19 35.075500 -106.530807 295 7138ft 202kts
20-May-17 19:20 35.062467 -106.581982 220 5943ft 165kts
20-May-17 19:21 35.032567 -106.618140 224 5360ft 107kts
20-May-17 19:22 35.022566 -106.630509 268 5360ft 10kts
20-May-17 19:23 35.022968 -106.631224 327 5360ft 0kts
20-May-17 19:24 35.022968 -106.631224 327 5360ft 0kts
20-May-17 19:25 35.022968 -106.631224 327 5360ft 0kts
20-May-17 19:26 35.025078 -106.629319 45 5360ft 18kts
20-May-17 19:27 35.030164 -106.623191 43 5360ft 36kts
20-May-17 19:28 35.037537 -106.614392 28 5360ft 15kts
20-May-17 19:29 35.041476 -106.613825 1 5360ft 17kts
20-May-17 19:30 35.045378 -106.613750 1 5360ft 0kts
20-May-17 19:31 35.046461 -106.615930 337 5360ft 7kts

Navigation Log

Ident Type
Flight plan parsing failed, navigation log unavailable